sensor_id;sensor_type;location;lat;lon;timestamp;pressure;altitude;pressure_sealevel;temperature
12409;BMP180;6268;48.188;17.134;2023-05-07T00:00:07;49652.66;;;-134.68
12409;BMP180;6268;48.188;17.134;2023-05-07T00:02:36;49650.72;;;-134.68
12409;BMP180;6268;48.188;17.134;2023-05-07T00:05:08;49650.72;;;-134.68
12409;BMP180;6268;48.188;17.134;2023-05-07T00:07:37;49652.66;;;-134.68
12409;BMP180;6268;48.188;17.134;2023-05-07T00:10:08;49650.72;;;-134.68
12409;BMP180;6268;48.188;17.134;2023-05-07T00:12:37;49650.72;;;-134.68
12409;BMP180;6268;48.188;17.134;2023-05-07T00:15:07;49648.78;;;-134.68
12409;BMP180;6268;48.188;17.134;2023-05-07T00:17:37;49650.72;;;-134.68
12409;BMP180;6268;48.188;17.134;2023-05-07T00:20:08;49650.72;;;-134.68
12409;BMP180;6268;48.188;17.134;2023-05-07T00:22:38;49652.66;;;-134.68
12409;BMP180;6268;48.188;17.134;2023-05-07T00:25:07;49650.72;;;-134.68
12409;BMP180;6268;48.188;17.134;2023-05-07T00:27:37;49650.72;;;-134.68
12409;BMP180;6268;48.188;17.134;2023-05-07T00:30:07;49650.72;;;-134.68
12409;BMP180;6268;48.188;17.134;2023-05-07T00:32:37;49648.78;;;-134.68
12409;BMP180;6268;48.188;17.134;2023-05-07T00:35:09;49650.72;;;-134.68
12409;BMP180;6268;48.188;17.134;2023-05-07T00:37:38;49646.84;;;-134.68
12409;BMP180;6268;48.188;17.134;2023-05-07T00:40:08;49652.66;;;-134.68
12409;BMP180;6268;48.188;17.134;2023-05-07T00:42:38;49652.66;;;-134.68
12409;BMP180;6268;48.188;17.134;2023-05-07T00:45:08;49650.72;;;-134.68
12409;BMP180;6268;48.188;17.134;2023-05-07T00:47:38;49652.66;;;-134.68
12409;BMP180;6268;48.188;17.134;2023-05-07T00:50:10;49650.72;;;-134.68
12409;BMP180;6268;48.188;17.134;2023-05-07T00:52:40;49648.78;;;-134.68
12409;BMP180;6268;48.188;17.134;2023-05-07T00:55:10;49654.59;;;-134.68
12409;BMP180;6268;48.188;17.134;2023-05-07T00:57:41;49648.78;;;-134.68
12409;BMP180;6268;48.188;17.134;2023-05-07T01:00:11;49650.72;;;-134.68
12409;BMP180;6268;48.188;17.134;2023-05-07T01:02:42;49650.72;;;-134.68
12409;BMP180;6268;48.188;17.134;2023-05-07T01:05:15;49650.72;;;-134.68
12409;BMP180;6268;48.188;17.134;2023-05-07T01:07:46;49650.72;;;-134.68
12409;BMP180;6268;48.188;17.134;2023-05-07T01:10:17;49650.72;;;-134.68
12409;BMP180;6268;48.188;17.134;2023-05-07T01:12:47;49650.72;;;-134.68
12409;BMP180;6268;48.188;17.134;2023-05-07T01:15:17;49650.72;;;-134.68
12409;BMP180;6268;48.188;17.134;2023-05-07T01:17:46;49648.78;;;-134.68
12409;BMP180;6268;48.188;17.134;2023-05-07T01:20:18;49650.72;;;-134.68
12409;BMP180;6268;48.188;17.134;2023-05-07T01:22:49;49652.66;;;-134.68
12409;BMP180;6268;48.188;17.134;2023-05-07T01:25:18;49652.66;;;-134.68
12409;BMP180;6268;48.188;17.134;2023-05-07T01:27:47;49650.72;;;-134.68
12409;BMP180;6268;48.188;17.134;2023-05-07T01:30:18;49652.66;;;-134.68
12409;BMP180;6268;48.188;17.134;2023-05-07T01:32:58;49648.78;;;-134.68
12409;BMP180;6268;48.188;17.134;2023-05-07T01:35:33;49650.72;;;-134.68
12409;BMP180;6268;48.188;17.134;2023-05-07T01:38:04;49648.78;;;-134.68
12409;BMP180;6268;48.188;17.134;2023-05-07T01:40:34;49650.72;;;-134.68
12409;BMP180;6268;48.188;17.134;2023-05-07T01:43:03;49650.72;;;-134.68
12409;BMP180;6268;48.188;17.134;2023-05-07T01:45:34;49652.66;;;-134.68
12409;BMP180;6268;48.188;17.134;2023-05-07T01:48:04;49648.78;;;-134.68
12409;BMP180;6268;48.188;17.134;2023-05-07T01:50:34;49648.78;;;-134.68
12409;BMP180;6268;48.188;17.134;2023-05-07T01:53:05;49650.72;;;-134.68
12409;BMP180;6268;48.188;17.134;2023-05-07T01:55:33;49646.84;;;-134.68
12409;BMP180;6268;48.188;17.134;2023-05-07T01:58:04;49648.78;;;-134.68
12409;BMP180;6268;48.188;17.134;2023-05-07T02:00:33;49650.72;;;-134.68
12409;BMP180;6268;48.188;17.134;2023-05-07T02:03:02;49650.72;;;-134.68
12409;BMP180;6268;48.188;17.134;2023-05-07T02:05:30;49654.59;;;-134.68
12409;BMP180;6268;48.188;17.134;2023-05-07T02:07:59;49648.78;;;-134.68
12409;BMP180;6268;48.188;17.134;2023-05-07T02:10:29;49648.78;;;-134.68
12409;BMP180;6268;48.188;17.134;2023-05-07T02:12:58;49650.72;;;-134.68
12409;BMP180;6268;48.188;17.134;2023-05-07T02:15:29;49648.78;;;-134.68
12409;BMP180;6268;48.188;17.134;2023-05-07T02:18:03;49650.72;;;-134.68
12409;BMP180;6268;48.188;17.134;2023-05-07T02:20:32;49654.59;;;-134.68
12409;BMP180;6268;48.188;17.134;2023-05-07T02:23:01;49652.66;;;-134.68
12409;BMP180;6268;48.188;17.134;2023-05-07T02:25:31;49650.72;;;-134.68
12409;BMP180;6268;48.188;17.134;2023-05-07T02:28:00;49650.72;;;-134.68
12409;BMP180;6268;48.188;17.134;2023-05-07T02:30:28;49650.72;;;-134.68
12409;BMP180;6268;48.188;17.134;2023-05-07T02:32:57;49650.72;;;-134.68
12409;BMP180;6268;48.188;17.134;2023-05-07T02:35:26;49646.84;;;-134.68
12409;BMP180;6268;48.188;17.134;2023-05-07T02:37:55;49650.72;;;-134.68
12409;BMP180;6268;48.188;17.134;2023-05-07T02:40:23;49652.66;;;-134.68
12409;BMP180;6268;48.188;17.134;2023-05-07T02:42:53;49650.72;;;-134.68
12409;BMP180;6268;48.188;17.134;2023-05-07T02:45:22;49654.59;;;-134.68
12409;BMP180;6268;48.188;17.134;2023-05-07T02:47:51;49648.78;;;-134.68
12409;BMP180;6268;48.188;17.134;2023-05-07T02:50:20;49652.66;;;-134.68
12409;BMP180;6268;48.188;17.134;2023-05-07T02:52:48;49650.72;;;-134.68
12409;BMP180;6268;48.188;17.134;2023-05-07T02:55:17;49648.78;;;-134.68
12409;BMP180;6268;48.188;17.134;2023-05-07T02:57:46;49650.72;;;-134.68
12409;BMP180;6268;48.188;17.134;2023-05-07T03:00:19;49652.66;;;-134.68
12409;BMP180;6268;48.188;17.134;2023-05-07T03:02:48;49650.72;;;-134.68
12409;BMP180;6268;48.188;17.134;2023-05-07T03:05:16;49652.66;;;-134.68
12409;BMP180;6268;48.188;17.134;2023-05-07T03:07:45;49652.66;;;-134.68
12409;BMP180;6268;48.188;17.134;2023-05-07T03:10:15;49650.72;;;-134.68
12409;BMP180;6268;48.188;17.134;2023-05-07T03:12:43;49654.59;;;-134.68
12409;BMP180;6268;48.188;17.134;2023-05-07T03:15:12;49648.78;;;-134.68
12409;BMP180;6268;48.188;17.134;2023-05-07T03:17:42;49652.66;;;-134.68
12409;BMP180;6268;48.188;17.134;2023-05-07T03:20:11;49650.72;;;-134.68
12409;BMP180;6268;48.188;17.134;2023-05-07T03:22:41;49646.84;;;-134.68
12409;BMP180;6268;48.188;17.134;2023-05-07T03:25:10;49650.72;;;-134.68
12409;BMP180;6268;48.188;17.134;2023-05-07T03:27:39;49650.72;;;-134.68
12409;BMP180;6268;48.188;17.134;2023-05-07T03:30:10;49652.66;;;-134.68
12409;BMP180;6268;48.188;17.134;2023-05-07T03:32:40;49650.72;;;-134.68
12409;BMP180;6268;48.188;17.134;2023-05-07T03:35:10;49652.66;;;-134.68
12409;BMP180;6268;48.188;17.134;2023-05-07T03:37:39;49650.72;;;-134.68
12409;BMP180;6268;48.188;17.134;2023-05-07T03:40:09;49650.72;;;-134.68
12409;BMP180;6268;48.188;17.134;2023-05-07T03:42:40;49650.72;;;-134.68
12409;BMP180;6268;48.188;17.134;2023-05-07T03:45:09;49650.72;;;-134.68
12409;BMP180;6268;48.188;17.134;2023-05-07T03:47:38;49648.78;;;-134.68
12409;BMP180;6268;48.188;17.134;2023-05-07T03:50:07;49650.72;;;-134.68
12409;BMP180;6268;48.188;17.134;2023-05-07T03:52:39;49648.78;;;-134.68
12409;BMP180;6268;48.188;17.134;2023-05-07T03:55:09;49650.72;;;-134.68
12409;BMP180;6268;48.188;17.134;2023-05-07T03:57:37;49650.72;;;-134.68
12409;BMP180;6268;48.188;17.134;2023-05-07T04:00:07;49650.72;;;-134.68
12409;BMP180;6268;48.188;17.134;2023-05-07T04:02:37;49650.72;;;-134.68
12409;BMP180;6268;48.188;17.134;2023-05-07T04:05:07;49650.72;;;-134.68
12409;BMP180;6268;48.188;17.134;2023-05-07T04:07:35;49648.78;;;-134.68
12409;BMP180;6268;48.188;17.134;2023-05-07T04:10:07;49650.72;;;-134.68
12409;BMP180;6268;48.188;17.134;2023-05-07T04:12:36;49652.66;;;-134.68
12409;BMP180;6268;48.188;17.134;2023-05-07T04:15:06;49650.72;;;-134.68
12409;BMP180;6268;48.188;17.134;2023-05-07T04:17:35;49652.66;;;-134.68
12409;BMP180;6268;48.188;17.134;2023-05-07T04:20:06;49648.78;;;-134.68
12409;BMP180;6268;48.188;17.134;2023-05-07T04:22:35;49650.72;;;-134.68
12409;BMP180;6268;48.188;17.134;2023-05-07T04:25:07;49648.78;;;-134.68
12409;BMP180;6268;48.188;17.134;2023-05-07T04:27:36;49650.72;;;-134.68
12409;BMP180;6268;48.188;17.134;2023-05-07T04:30:07;49650.72;;;-134.68
12409;BMP180;6268;48.188;17.134;2023-05-07T04:32:36;49652.66;;;-134.68
12409;BMP180;6268;48.188;17.134;2023-05-07T04:35:06;49650.72;;;-134.68
12409;BMP180;6268;48.188;17.134;2023-05-07T04:37:35;49650.72;;;-134.68
12409;BMP180;6268;48.188;17.134;2023-05-07T04:40:07;49650.72;;;-134.68
12409;BMP180;6268;48.188;17.134;2023-05-07T04:42:37;49652.66;;;-134.68
12409;BMP180;6268;48.188;17.134;2023-05-07T04:45:07;49650.72;;;-134.68
12409;BMP180;6268;48.188;17.134;2023-05-07T04:47:37;49650.72;;;-134.68
12409;BMP180;6268;48.188;17.134;2023-05-07T04:50:07;49650.72;;;-134.68
12409;BMP180;6268;48.188;17.134;2023-05-07T04:52:37;49650.72;;;-134.68
12409;BMP180;6268;48.188;17.134;2023-05-07T04:55:08;49648.78;;;-134.68
12409;BMP180;6268;48.188;17.134;2023-05-07T04:57:37;49652.66;;;-134.68
12409;BMP180;6268;48.188;17.134;2023-05-07T05:00:08;49650.72;;;-134.68
12409;BMP180;6268;48.188;17.134;2023-05-07T05:02:38;49654.59;;;-134.68
12409;BMP180;6268;48.188;17.134;2023-05-07T05:05:07;49652.66;;;-134.68
12409;BMP180;6268;48.188;17.134;2023-05-07T05:07:36;49650.72;;;-134.68
12409;BMP180;6268;48.188;17.134;2023-05-07T05:10:07;49650.72;;;-134.68
12409;BMP180;6268;48.188;17.134;2023-05-07T05:12:37;49654.59;;;-134.68
12409;BMP180;6268;48.188;17.134;2023-05-07T05:15:07;49652.66;;;-134.68
12409;BMP180;6268;48.188;17.134;2023-05-07T05:17:37;49654.59;;;-134.68
12409;BMP180;6268;48.188;17.134;2023-05-07T05:20:07;49652.66;;;-134.68
12409;BMP180;6268;48.188;17.134;2023-05-07T05:22:38;49654.59;;;-134.68
12409;BMP180;6268;48.188;17.134;2023-05-07T05:25:09;49658.47;;;-134.68
12409;BMP180;6268;48.188;17.134;2023-05-07T05:27:37;49656.53;;;-134.68
12409;BMP180;6268;48.188;17.134;2023-05-07T05:30:07;49658.47;;;-134.68
12409;BMP180;6268;48.188;17.134;2023-05-07T05:32:37;49656.53;;;-134.68
12409;BMP180;6268;48.188;17.134;2023-05-07T05:35:07;49654.59;;;-134.68
12409;BMP180;6268;48.188;17.134;2023-05-07T05:37:36;49654.59;;;-134.68
12409;BMP180;6268;48.188;17.134;2023-05-07T05:40:08;49654.59;;;-134.68
12409;BMP180;6268;48.188;17.134;2023-05-07T05:42:37;49654.59;;;-134.68
12409;BMP180;6268;48.188;17.134;2023-05-07T05:45:07;49654.59;;;-134.68
12409;BMP180;6268;48.188;17.134;2023-05-07T05:47:37;49656.53;;;-134.68
12409;BMP180;6268;48.188;17.134;2023-05-07T05:50:07;49654.59;;;-134.68
12409;BMP180;6268;48.188;17.134;2023-05-07T05:52:37;49654.59;;;-134.68
12409;BMP180;6268;48.188;17.134;2023-05-07T05:55:08;49656.53;;;-134.68
12409;BMP180;6268;48.188;17.134;2023-05-07T05:57:37;49656.53;;;-134.68
12409;BMP180;6268;48.188;17.134;2023-05-07T06:00:08;49654.59;;;-134.68
12409;BMP180;6268;48.188;17.134;2023-05-07T06:02:38;49652.66;;;-134.68
12409;BMP180;6268;48.188;17.134;2023-05-07T06:05:07;49654.59;;;-134.68
12409;BMP180;6268;48.188;17.134;2023-05-07T06:07:36;49654.59;;;-134.68
12409;BMP180;6268;48.188;17.134;2023-05-07T06:10:08;49652.66;;;-134.68
12409;BMP180;6268;48.188;17.134;2023-05-07T06:12:37;49652.66;;;-134.68
12409;BMP180;6268;48.188;17.134;2023-05-07T06:15:07;49654.59;;;-134.68
12409;BMP180;6268;48.188;17.134;2023-05-07T06:17:36;49656.53;;;-134.68
12409;BMP180;6268;48.188;17.134;2023-05-07T06:20:07;49658.47;;;-134.68
12409;BMP180;6268;48.188;17.134;2023-05-07T06:22:36;49656.53;;;-134.68
12409;BMP180;6268;48.188;17.134;2023-05-07T06:25:06;49652.66;;;-134.68
12409;BMP180;6268;48.188;17.134;2023-05-07T06:27:36;49658.47;;;-134.68
12409;BMP180;6268;48.188;17.134;2023-05-07T06:30:08;49658.47;;;-134.68
12409;BMP180;6268;48.188;17.134;2023-05-07T06:32:37;49654.59;;;-134.68
12409;BMP180;6268;48.188;17.134;2023-05-07T06:35:07;49654.59;;;-134.68
12409;BMP180;6268;48.188;17.134;2023-05-07T06:37:36;49658.47;;;-134.68
12409;BMP180;6268;48.188;17.134;2023-05-07T06:40:07;49654.59;;;-134.68
12409;BMP180;6268;48.188;17.134;2023-05-07T06:42:38;49656.53;;;-134.68
12409;BMP180;6268;48.188;17.134;2023-05-07T06:45:08;49654.59;;;-134.68
12409;BMP180;6268;48.188;17.134;2023-05-07T06:47:37;49658.47;;;-134.68
12409;BMP180;6268;48.188;17.134;2023-05-07T06:50:08;49656.53;;;-134.68
12409;BMP180;6268;48.188;17.134;2023-05-07T06:52:37;49656.53;;;-134.68
12409;BMP180;6268;48.188;17.134;2023-05-07T06:55:08;49656.53;;;-134.68
12409;BMP180;6268;48.188;17.134;2023-05-07T06:57:39;49654.59;;;-134.68
12409;BMP180;6268;48.188;17.134;2023-05-07T07:00:09;49656.53;;;-134.68
12409;BMP180;6268;48.188;17.134;2023-05-07T07:02:39;49656.53;;;-134.68
12409;BMP180;6268;48.188;17.134;2023-05-07T07:05:08;49658.47;;;-134.68
12409;BMP180;6268;48.188;17.134;2023-05-07T07:07:37;49656.53;;;-134.68
12409;BMP180;6268;48.188;17.134;2023-05-07T07:10:08;49654.59;;;-134.68
12409;BMP180;6268;48.188;17.134;2023-05-07T07:12:38;49658.47;;;-134.68
12409;BMP180;6268;48.188;17.134;2023-05-07T07:15:08;49658.47;;;-134.68
12409;BMP180;6268;48.188;17.134;2023-05-07T07:17:37;49654.59;;;-134.68
12409;BMP180;6268;48.188;17.134;2023-05-07T07:20:07;49656.53;;;-134.68
12409;BMP180;6268;48.188;17.134;2023-05-07T07:22:38;49656.53;;;-134.68
12409;BMP180;6268;48.188;17.134;2023-05-07T07:25:08;49654.59;;;-134.68
12409;BMP180;6268;48.188;17.134;2023-05-07T07:27:39;49654.59;;;-134.68
12409;BMP180;6268;48.188;17.134;2023-05-07T07:30:09;49654.59;;;-134.68
12409;BMP180;6268;48.188;17.134;2023-05-07T07:32:38;49652.66;;;-134.68
12409;BMP180;6268;48.188;17.134;2023-05-07T07:35:08;49658.47;;;-134.68
12409;BMP180;6268;48.188;17.134;2023-05-07T07:37:37;49656.53;;;-134.68
12409;BMP180;6268;48.188;17.134;2023-05-07T07:40:07;49656.53;;;-134.68
12409;BMP180;6268;48.188;17.134;2023-05-07T07:42:38;49654.59;;;-134.68
12409;BMP180;6268;48.188;17.134;2023-05-07T07:45:08;49652.66;;;-134.68
12409;BMP180;6268;48.188;17.134;2023-05-07T07:47:37;49654.59;;;-134.68
12409;BMP180;6268;48.188;17.134;2023-05-07T07:50:07;49652.66;;;-134.68
12409;BMP180;6268;48.188;17.134;2023-05-07T07:52:37;49650.72;;;-134.68
12409;BMP180;6268;48.188;17.134;2023-05-07T07:55:07;49652.66;;;-134.68
12409;BMP180;6268;48.188;17.134;2023-05-07T07:57:36;49654.59;;;-134.68
12409;BMP180;6268;48.188;17.134;2023-05-07T08:00:08;49652.66;;;-134.68
12409;BMP180;6268;48.188;17.134;2023-05-07T08:02:37;49654.59;;;-134.68
12409;BMP180;6268;48.188;17.134;2023-05-07T08:05:07;49654.59;;;-134.68
12409;BMP180;6268;48.188;17.134;2023-05-07T08:07:36;49654.59;;;-134.68
12409;BMP180;6268;48.188;17.134;2023-05-07T08:10:05;49654.59;;;-134.68
12409;BMP180;6268;48.188;17.134;2023-05-07T08:12:34;49658.47;;;-134.68
12409;BMP180;6268;48.188;17.134;2023-05-07T08:15:04;49658.47;;;-134.68
12409;BMP180;6268;48.188;17.134;2023-05-07T08:17:34;49654.59;;;-134.68
12409;BMP180;6268;48.188;17.134;2023-05-07T08:20:04;49654.59;;;-134.68
12409;BMP180;6268;48.188;17.134;2023-05-07T08:22:35;49656.53;;;-134.68
12409;BMP180;6268;48.188;17.134;2023-05-07T08:25:04;49658.47;;;-134.68
12409;BMP180;6268;48.188;17.134;2023-05-07T08:27:33;49656.53;;;-134.68
12409;BMP180;6268;48.188;17.134;2023-05-07T08:30:03;49658.47;;;-134.68
12409;BMP180;6268;48.188;17.134;2023-05-07T08:32:33;49656.53;;;-134.68
12409;BMP180;6268;48.188;17.134;2023-05-07T08:35:03;49656.53;;;-134.68
12409;BMP180;6268;48.188;17.134;2023-05-07T08:37:32;49654.59;;;-134.68
12409;BMP180;6268;48.188;17.134;2023-05-07T08:40:00;49656.53;;;-134.68
12409;BMP180;6268;48.188;17.134;2023-05-07T08:42:31;49654.59;;;-134.68
12409;BMP180;6268;48.188;17.134;2023-05-07T08:45:07;49656.53;;;-134.68
12409;BMP180;6268;48.188;17.134;2023-05-07T08:47:43;49656.53;;;-134.68
12409;BMP180;6268;48.188;17.134;2023-05-07T08:50:13;49660.41;;;-134.68
12409;BMP180;6268;48.188;17.134;2023-05-07T08:52:42;49652.66;;;-134.68
12409;BMP180;6268;48.188;17.134;2023-05-07T08:55:13;49656.53;;;-134.68
12409;BMP180;6268;48.188;17.134;2023-05-07T08:57:42;49654.59;;;-134.68
12409;BMP180;6268;48.188;17.134;2023-05-07T09:00:13;49658.47;;;-134.68
12409;BMP180;6268;48.188;17.134;2023-05-07T09:02:44;49658.47;;;-134.68
12409;BMP180;6268;48.188;17.134;2023-05-07T09:05:13;49656.53;;;-134.68
12409;BMP180;6268;48.188;17.134;2023-05-07T09:07:41;49656.53;;;-134.68
12409;BMP180;6268;48.188;17.134;2023-05-07T09:10:11;49656.53;;;-134.68
12409;BMP180;6268;48.188;17.134;2023-05-07T09:12:40;49656.53;;;-134.68
12409;BMP180;6268;48.188;17.134;2023-05-07T09:15:10;49654.59;;;-134.68
12409;BMP180;6268;48.188;17.134;2023-05-07T09:17:39;49656.53;;;-134.68
12409;BMP180;6268;48.188;17.134;2023-05-07T09:20:11;49654.59;;;-134.68
12409;BMP180;6268;48.188;17.134;2023-05-07T09:22:40;49654.59;;;-134.68
12409;BMP180;6268;48.188;17.134;2023-05-07T09:25:10;49658.47;;;-134.68
12409;BMP180;6268;48.188;17.134;2023-05-07T09:27:41;49654.59;;;-134.68
12409;BMP180;6268;48.188;17.134;2023-05-07T09:30:11;49654.59;;;-134.68
12409;BMP180;6268;48.188;17.134;2023-05-07T09:32:40;49658.47;;;-134.68
12409;BMP180;6268;48.188;17.134;2023-05-07T09:35:17;49658.47;;;-134.68
12409;BMP180;6268;48.188;17.134;2023-05-07T09:37:46;49658.47;;;-134.68
12409;BMP180;6268;48.188;17.134;2023-05-07T09:40:21;49654.59;;;-134.68
12409;BMP180;6268;48.188;17.134;2023-05-07T09:42:51;49656.53;;;-134.68
12409;BMP180;6268;48.188;17.134;2023-05-07T09:45:24;49654.59;;;-134.68
12409;BMP180;6268;48.188;17.134;2023-05-07T09:47:56;49658.47;;;-134.68
12409;BMP180;6268;48.188;17.134;2023-05-07T09:50:29;49656.53;;;-134.68
12409;BMP180;6268;48.188;17.134;2023-05-07T09:52:58;49654.59;;;-134.68
12409;BMP180;6268;48.188;17.134;2023-05-07T09:55:28;49658.47;;;-134.68
12409;BMP180;6268;48.188;17.134;2023-05-07T09:57:58;49656.53;;;-134.68
12409;BMP180;6268;48.188;17.134;2023-05-07T10:00:30;49656.53;;;-134.68
12409;BMP180;6268;48.188;17.134;2023-05-07T10:03:01;49654.59;;;-134.68
12409;BMP180;6268;48.188;17.134;2023-05-07T10:05:33;49658.47;;;-134.68
12409;BMP180;6268;48.188;17.134;2023-05-07T10:08:03;49654.59;;;-134.68
12409;BMP180;6268;48.188;17.134;2023-05-07T10:10:33;49656.53;;;-134.68
12409;BMP180;6268;48.188;17.134;2023-05-07T10:13:02;49654.59;;;-134.68
12409;BMP180;6268;48.188;17.134;2023-05-07T10:15:34;49652.66;;;-134.68
12409;BMP180;6268;48.188;17.134;2023-05-07T10:18:04;49658.47;;;-134.68
12409;BMP180;6268;48.188;17.134;2023-05-07T10:20:45;49654.59;;;-134.68
12409;BMP180;6268;48.188;17.134;2023-05-07T10:23:23;49654.59;;;-134.68
12409;BMP180;6268;48.188;17.134;2023-05-07T10:25:53;49656.53;;;-134.68
12409;BMP180;6268;48.188;17.134;2023-05-07T10:28:29;49656.53;;;-134.68
12409;BMP180;6268;48.188;17.134;2023-05-07T10:31:18;49652.66;;;-134.68
12409;BMP180;6268;48.188;17.134;2023-05-07T10:33:55;49650.72;;;-134.68
12409;BMP180;6268;48.188;17.134;2023-05-07T10:36:27;49654.59;;;-134.68
12409;BMP180;6268;48.188;17.134;2023-05-07T10:38:55;49658.47;;;-134.68
12409;BMP180;6268;48.188;17.134;2023-05-07T10:41:24;49654.59;;;-134.68
12409;BMP180;6268;48.188;17.134;2023-05-07T10:43:53;49654.59;;;-134.68
12409;BMP180;6268;48.188;17.134;2023-05-07T10:46:23;49654.59;;;-134.68
12409;BMP180;6268;48.188;17.134;2023-05-07T10:49:09;49656.53;;;-134.68
12409;BMP180;6268;48.188;17.134;2023-05-07T10:51:41;49654.59;;;-134.68
12409;BMP180;6268;48.188;17.134;2023-05-07T10:54:22;49656.53;;;-134.68
12409;BMP180;6268;48.188;17.134;2023-05-07T10:56:52;49656.53;;;-134.68
12409;BMP180;6268;48.188;17.134;2023-05-07T10:59:37;49656.53;;;-134.68
12409;BMP180;6268;48.188;17.134;2023-05-07T11:02:10;49656.53;;;-134.68
12409;BMP180;6268;48.188;17.134;2023-05-07T11:04:41;49656.53;;;-134.68
12409;BMP180;6268;48.188;17.134;2023-05-07T11:07:31;49656.53;;;-134.68
12409;BMP180;6268;48.188;17.134;2023-05-07T11:10:04;49654.59;;;-134.68
12409;BMP180;6268;48.188;17.134;2023-05-07T11:12:53;49654.59;;;-134.68
12409;BMP180;6268;48.188;17.134;2023-05-07T11:15:44;49654.59;;;-134.68
12409;BMP180;6268;48.188;17.134;2023-05-07T11:18:15;49652.66;;;-134.68
12409;BMP180;6268;48.188;17.134;2023-05-07T11:21:03;49658.47;;;-134.68
12409;BMP180;6268;48.188;17.134;2023-05-07T11:23:59;49658.47;;;-134.68
12409;BMP180;6268;48.188;17.134;2023-05-07T11:26:30;49652.66;;;-134.68
12409;BMP180;6268;48.188;17.134;2023-05-07T11:29:00;49656.53;;;-134.68
12409;BMP180;6268;48.188;17.134;2023-05-07T11:31:29;49654.59;;;-134.68
12409;BMP180;6268;48.188;17.134;2023-05-07T11:33:58;49654.59;;;-134.68
12409;BMP180;6268;48.188;17.134;2023-05-07T11:36:33;49654.59;;;-134.68
12409;BMP180;6268;48.188;17.134;2023-05-07T11:39:03;49654.59;;;-134.68
12409;BMP180;6268;48.188;17.134;2023-05-07T11:41:36;49654.59;;;-134.68
12409;BMP180;6268;48.188;17.134;2023-05-07T11:44:05;49654.59;;;-134.68
12409;BMP180;6268;48.188;17.134;2023-05-07T11:46:34;49652.66;;;-134.68
12409;BMP180;6268;48.188;17.134;2023-05-07T11:49:02;49654.59;;;-134.68
12409;BMP180;6268;48.188;17.134;2023-05-07T11:51:31;49658.47;;;-134.68
12409;BMP180;6268;48.188;17.134;2023-05-07T11:54:00;49654.59;;;-134.68
12409;BMP180;6268;48.188;17.134;2023-05-07T11:56:35;49654.59;;;-134.68
12409;BMP180;6268;48.188;17.134;2023-05-07T11:59:04;49652.66;;;-134.68
12409;BMP180;6268;48.188;17.134;2023-05-07T12:01:35;49652.66;;;-134.68
12409;BMP180;6268;48.188;17.134;2023-05-07T12:04:05;49652.66;;;-134.68
12409;BMP180;6268;48.188;17.134;2023-05-07T12:06:36;49650.72;;;-134.68
12409;BMP180;6268;48.188;17.134;2023-05-07T12:09:06;49650.72;;;-134.68
12409;BMP180;6268;48.188;17.134;2023-05-07T12:11:40;49652.66;;;-134.68
12409;BMP180;6268;48.188;17.134;2023-05-07T12:14:08;49650.72;;;-134.68
12409;BMP180;6268;48.188;17.134;2023-05-07T12:16:39;49652.66;;;-134.68
12409;BMP180;6268;48.188;17.134;2023-05-07T12:19:09;49650.72;;;-134.68
12409;BMP180;6268;48.188;17.134;2023-05-07T12:21:42;49650.72;;;-134.68
12409;BMP180;6268;48.188;17.134;2023-05-07T12:24:11;49650.72;;;-134.68
12409;BMP180;6268;48.188;17.134;2023-05-07T12:26:41;49652.66;;;-134.68
12409;BMP180;6268;48.188;17.134;2023-05-07T12:29:10;49650.72;;;-134.68
12409;BMP180;6268;48.188;17.134;2023-05-07T12:31:41;49648.78;;;-134.68
12409;BMP180;6268;48.188;17.134;2023-05-07T12:34:11;49650.72;;;-134.68
12409;BMP180;6268;48.188;17.134;2023-05-07T12:36:40;49654.59;;;-134.68
12409;BMP180;6268;48.188;17.134;2023-05-07T12:39:09;49650.72;;;-134.68
12409;BMP180;6268;48.188;17.134;2023-05-07T12:41:56;49650.72;;;-134.68
12409;BMP180;6268;48.188;17.134;2023-05-07T12:44:30;49654.59;;;-134.68
12409;BMP180;6268;48.188;17.134;2023-05-07T12:47:02;49650.72;;;-134.68
12409;BMP180;6268;48.188;17.134;2023-05-07T12:49:30;49654.59;;;-134.68
12409;BMP180;6268;48.188;17.134;2023-05-07T12:51:59;49650.72;;;-134.68
12409;BMP180;6268;48.188;17.134;2023-05-07T12:54:29;49654.59;;;-134.68
12409;BMP180;6268;48.188;17.134;2023-05-07T12:57:05;49652.66;;;-134.68
12409;BMP180;6268;48.188;17.134;2023-05-07T12:59:36;49652.66;;;-134.68
12409;BMP180;6268;48.188;17.134;2023-05-07T13:02:05;49652.66;;;-134.68
12409;BMP180;6268;48.188;17.134;2023-05-07T13:04:35;49650.72;;;-134.68
12409;BMP180;6268;48.188;17.134;2023-05-07T13:07:04;49650.72;;;-134.68
12409;BMP180;6268;48.188;17.134;2023-05-07T13:09:32;49650.72;;;-134.68
12409;BMP180;6268;48.188;17.134;2023-05-07T13:12:03;49652.66;;;-134.68
12409;BMP180;6268;48.188;17.134;2023-05-07T13:14:32;49652.66;;;-134.68
12409;BMP180;6268;48.188;17.134;2023-05-07T13:17:00;49654.59;;;-134.68
12409;BMP180;6268;48.188;17.134;2023-05-07T13:19:29;49650.72;;;-134.68
12409;BMP180;6268;48.188;17.134;2023-05-07T13:21:58;49652.66;;;-134.68
12409;BMP180;6268;48.188;17.134;2023-05-07T13:24:27;49654.59;;;-134.68
12409;BMP180;6268;48.188;17.134;2023-05-07T13:26:56;49654.59;;;-134.68
12409;BMP180;6268;48.188;17.134;2023-05-07T13:29:27;49650.72;;;-134.68
12409;BMP180;6268;48.188;17.134;2023-05-07T13:31:57;49650.72;;;-134.68
12409;BMP180;6268;48.188;17.134;2023-05-07T13:34:27;49650.72;;;-134.68
12409;BMP180;6268;48.188;17.134;2023-05-07T13:36:56;49652.66;;;-134.68
12409;BMP180;6268;48.188;17.134;2023-05-07T13:39:25;49652.66;;;-134.68
12409;BMP180;6268;48.188;17.134;2023-05-07T13:41:54;49650.72;;;-134.68
12409;BMP180;6268;48.188;17.134;2023-05-07T13:44:22;49648.78;;;-134.68
12409;BMP180;6268;48.188;17.134;2023-05-07T13:46:53;49652.66;;;-134.68
12409;BMP180;6268;48.188;17.134;2023-05-07T13:49:22;49652.66;;;-134.68
12409;BMP180;6268;48.188;17.134;2023-05-07T13:51:51;49650.72;;;-134.68
12409;BMP180;6268;48.188;17.134;2023-05-07T13:54:20;49652.66;;;-134.68
12409;BMP180;6268;48.188;17.134;2023-05-07T13:56:48;49650.72;;;-134.68
12409;BMP180;6268;48.188;17.134;2023-05-07T13:59:17;49652.66;;;-134.68
12409;BMP180;6268;48.188;17.134;2023-05-07T14:01:46;49650.72;;;-134.68